Time;durP1;ratioP1;P1;durP2;ratioP2;P2;SDS_P1;SDS_P2;PMS_P1;PMS_P2;Temp;Humidity;BMP_temperature;BMP_pressure;BME280_temperature;BME280_humidity;BME280_pressure;Samples;Min_cycle;Max_cycle;Signal;HPM_P1;HPM_P2
2022/06/08 00:00:22;;;;;;;0.95;0.45;;;17.10;56.60;19.30;93761.00;;;;10407139;28;45164;-69
2022/06/08 00:05:45;;;;;;;1.15;0.40;;;17.20;57.30;19.30;93750.00;;;;10407207;28;45138;-69
2022/06/08 00:11:06;;;;;;;1.77;0.50;;;17.10;56.60;19.30;93741.00;;;;10407075;28;45844;-69
2022/06/08 00:16:27;;;;;;;0.20;0.20;;;17.20;56.60;19.30;93745.00;;;;10407036;28;44889;-69
2022/06/08 00:21:49;;;;;;;1.08;0.30;;;17.10;56.60;19.30;93736.00;;;;10407068;28;45753;-69
2022/06/08 00:27:09;;;;;;;0.60;0.30;;;17.10;56.50;19.20;93731.00;;;;10407019;28;45849;-69
2022/06/08 00:32:30;;;;;;;0.75;0.38;;;17.10;56.50;19.20;93736.00;;;;10406333;28;45663;-69
2022/06/08 00:37:52;;;;;;;0.98;0.28;;;17.10;56.50;19.20;93713.00;;;;10406396;28;45114;-69
2022/06/08 00:43:13;;;;;;;0.50;0.30;;;17.10;56.50;19.20;93732.00;;;;10406307;28;45241;-69
2022/06/08 00:48:39;;;;;;;0.60;0.40;;;17.10;56.50;19.20;93712.00;;;;10403413;28;45152;-69
2022/06/08 00:54:04;;;;;;;1.15;0.30;;;17.10;56.50;19.20;93717.00;;;;10399016;28;45698;-70
2022/06/08 00:59:25;;;;;;;0.75;0.20;;;17.10;56.50;19.20;93714.00;;;;10396119;28;45166;-69
2022/06/08 01:04:46;;;;;;;1.00;0.30;;;17.10;56.40;19.20;93700.00;;;;10394885;28;45363;-69
2022/06/08 01:10:12;;;;;;;3.20;0.30;;;17.10;56.40;19.20;93707.00;;;;10397440;28;46156;-69
2022/06/08 01:15:37;;;;;;;1.20;0.47;;;17.10;56.40;19.20;93696.00;;;;10398463;28;45687;-69
2022/06/08 01:21:36;;;;;;;0.60;0.20;;;17.00;56.30;19.20;93688.00;;;;10398236;28;45230;-69
2022/06/08 01:27:19;;;;;;;0.85;0.40;;;17.10;56.30;19.20;93694.00;;;;10398306;28;45231;-69
2022/06/08 01:33:28;;;;;;;0.75;0.22;;;17.00;56.30;19.20;93672.00;;;;10368658;28;45281;-69
2022/06/08 01:39:03;;;;;;;1.17;0.38;;;17.00;56.20;19.10;93675.00;;;;10398445;28;45291;-69
2022/06/08 01:50:47;;;;;;;0.43;0.30;;;17.00;56.50;19.10;93676.00;;;;10396934;28;45093;-69
2022/06/08 01:56:22;;;;;;;1.98;0.40;;;17.00;56.20;19.10;93660.00;;;;10397198;28;45117;-69
2022/06/08 02:01:51;;;;;;;0.82;0.30;;;17.00;56.20;19.10;93653.00;;;;10396527;28;45188;-69
2022/06/08 02:07:21;;;;;;;1.10;0.40;;;17.00;56.10;19.10;93660.00;;;;10397298;28;45379;-69
2022/06/08 02:12:50;;;;;;;1.08;0.30;;;17.00;56.10;19.10;93647.00;;;;10396750;28;45744;-69
2022/06/08 02:18:18;;;;;;;0.98;0.30;;;17.00;56.10;19.10;93642.00;;;;10396573;28;45869;-69
2022/06/08 02:23:44;;;;;;;;;;;17.00;56.10;19.10;93628.00;;;;10396578;28;45237;-68
2022/06/08 02:29:12;;;;;;;0.55;0.20;;;16.90;56.00;19.10;93628.00;;;;10396328;28;45090;-69
2022/06/08 02:34:36;;;;;;;1.35;0.47;;;16.90;56.00;19.10;93630.00;;;;10396236;28;45420;-69
2022/06/08 02:40:05;;;;;;;0.90;0.30;;;16.90;56.00;19.10;93632.00;;;;10395475;28;45252;-69
2022/06/08 02:45:32;;;;;;;1.02;0.30;;;16.90;56.00;19.10;93622.00;;;;10395702;28;45155;-69
2022/06/08 02:50:58;;;;;;;;;;;16.90;56.00;19.10;93606.00;;;;10395343;28;45103;-69
2022/06/08 02:56:44;;;;;;;0.73;0.22;;;16.90;56.00;19.00;93613.00;;;;10395588;28;45221;-69
2022/06/08 03:02:14;;;;;;;0.65;0.30;;;16.90;55.90;19.10;93611.00;;;;10395304;28;45050;-69
2022/06/08 03:07:41;;;;;;;1.33;0.40;;;16.90;55.90;19.00;93618.00;;;;10394960;28;45131;-69
2022/06/08 03:13:08;;;;;;;0.85;0.30;;;16.90;55.90;19.00;93594.00;;;;10393769;28;45166;-69
2022/06/08 03:18:31;;;;;;;1.20;0.32;;;16.90;55.90;19.00;93602.00;;;;10394428;28;45690;-69
2022/06/08 03:23:51;;;;;;;0.82;0.30;;;16.90;55.80;19.00;93603.00;;;;10394695;28;45810;-69
2022/06/08 03:29:12;;;;;;;0.82;0.25;;;16.90;55.80;19.00;93608.00;;;;10394633;28;45090;-69
2022/06/08 03:34:34;;;;;;;0.47;0.30;;;16.90;56.50;19.00;93591.00;;;;10395017;28;45377;-69
2022/06/08 03:39:54;;;;;;;0.45;0.20;;;16.90;55.80;19.00;93602.00;;;;10394393;28;45098;-69
2022/06/08 03:45:15;;;;;;;0.98;0.40;;;16.90;55.70;19.00;93585.00;;;;10394596;28;45264;-69
2022/06/08 03:50:40;;;;;;;1.30;0.30;;;16.90;55.70;19.00;93586.00;;;;10417471;22;45864;-62
2022/06/08 03:56:05;;;;;;;0.90;0.30;;;16.90;55.60;19.00;93588.00;;;;10435264;28;45203;-59
2022/06/08 04:01:26;;;;;;;0.63;0.25;;;16.90;55.60;19.00;93586.00;;;;10434692;28;45221;-60
2022/06/08 04:06:49;;;;;;;0.55;0.30;;;16.80;55.60;19.00;93580.00;;;;10435274;28;45217;-59
2022/06/08 04:12:11;;;;;;;0.50;0.30;;;16.80;55.60;19.10;93566.00;;;;10436122;28;45209;-59
2022/06/08 04:17:32;;;;;;;1.90;0.30;;;16.90;55.40;19.10;93564.00;;;;10434742;28;45689;-59
2022/06/08 04:22:54;;;;;;;1.80;0.30;;;17.00;55.10;19.10;93548.00;;;;10437127;28;45182;-61
2022/06/08 04:28:14;;;;;;;0.95;0.10;;;17.00;55.10;19.10;93557.00;;;;10442301;28;45362;-60
2022/06/08 04:33:36;;;;;;;0.30;0.20;;;17.10;54.90;19.20;93557.00;;;;10441735;28;45706;-60
2022/06/08 04:38:57;;;;;;;0.80;0.30;;;17.10;54.80;19.20;93544.00;;;;10441933;28;45833;-61
2022/06/08 04:44:18;;;;;;;0.57;0.30;;;17.10;54.80;19.20;93546.00;;;;10441802;28;45196;-59
2022/06/08 04:49:39;;;;;;;0.50;0.30;;;17.10;54.60;19.20;93558.00;;;;10441942;28;45373;-61
2022/06/08 04:55:01;;;;;;;0.90;0.35;;;17.10;54.50;19.30;93551.00;;;;10440582;28;45236;-59
2022/06/08 05:00:23;;;;;;;0.82;0.35;;;17.20;54.50;19.30;93555.00;;;;10441639;28;45821;-61
2022/06/08 05:05:44;;;;;;;0.52;0.20;;;17.20;54.40;19.30;93534.00;;;;10440113;28;45880;-60
2022/06/08 05:11:06;;;;;;;0.60;0.30;;;17.20;54.40;19.30;93565.00;;;;10440765;28;45203;-61
2022/06/08 05:16:27;;;;;;;0.68;0.30;;;17.30;54.30;19.40;93555.00;;;;10440569;28;45245;-60
2022/06/08 05:21:47;;;;;;;2.22;0.30;;;17.20;54.30;19.40;93549.00;;;;10440358;28;45181;-59
2022/06/08 05:27:09;;;;;;;1.17;0.30;;;17.30;54.30;19.40;93537.00;;;;10440346;28;46102;-60
2022/06/08 05:32:30;;;;;;;0.77;0.30;;;17.30;54.30;19.40;93540.00;;;;10439984;28;45756;-60
2022/06/08 05:37:51;;;;;;;1.27;0.25;;;17.30;54.30;19.40;93546.00;;;;10437545;28;45204;-59
2022/06/08 05:43:15;;;;;;;0.82;0.30;;;17.40;54.30;19.50;93536.00;;;;10435830;28;45216;-59
2022/06/08 05:48:36;;;;;;;1.45;0.22;;;17.40;54.30;19.50;93548.00;;;;10438099;28;45841;-60
2022/06/08 05:53:56;;;;;;;0.85;0.40;;;17.40;54.30;19.50;93539.00;;;;10410372;28;45217;-60
2022/06/08 05:59:18;;;;;;;0.82;0.40;;;17.40;54.30;19.50;93547.00;;;;10415420;28;45379;-60
2022/06/08 06:04:38;;;;;;;2.75;0.75;;;17.40;54.40;19.50;93545.00;;;;10438744;28;45229;-59
2022/06/08 06:10:03;;;;;;;2.30;0.57;;;17.40;54.40;19.50;93540.00;;;;10438771;28;45331;-59
2022/06/08 06:15:26;;;;;;;3.05;0.70;;;17.50;54.60;19.50;93537.00;;;;10438675;28;45693;-59
2022/06/08 06:20:48;;;;;;;2.47;0.85;;;17.40;54.40;19.60;93523.00;;;;10437917;28;45536;-59
2022/06/08 06:26:09;;;;;;;1.67;0.52;;;17.40;54.30;19.60;93519.00;;;;10438557;28;45200;-59
2022/06/08 06:31:39;;;;;;;3.83;0.63;;;17.50;54.40;19.60;93521.00;;;;10438357;28;45153;-59
2022/06/08 06:37:00;;;;;;;1.48;0.60;;;17.40;54.40;19.60;93524.00;;;;10438156;28;45173;-61
2022/06/08 06:42:25;;;;;;;1.05;0.60;;;17.50;54.50;19.60;93504.00;;;;10437956;28;45681;-61
2022/06/08 06:47:47;;;;;;;3.53;0.82;;;17.50;54.40;19.60;93509.00;;;;10437134;28;45121;-60
2022/06/08 06:53:08;;;;;;;1.40;0.70;;;17.50;54.40;19.60;93506.00;;;;10436130;28;45198;-60
2022/06/08 06:58:29;;;;;;;0.98;0.50;;;17.50;54.50;19.60;93502.00;;;;10437465;28;45263;-59
2022/06/08 07:03:51;;;;;;;1.83;0.63;;;17.50;54.50;19.60;93479.00;;;;10436857;28;45150;-60
2022/06/08 07:09:12;;;;;;;1.95;0.60;;;17.60;54.50;19.70;93488.00;;;;10437014;28;45702;-59
2022/06/08 07:14:33;;;;;;;1.70;0.70;;;17.50;54.50;19.70;93476.00;;;;10436520;28;45685;-59
2022/06/08 07:19:55;;;;;;;1.85;0.50;;;17.50;54.50;19.70;93478.00;;;;10437270;28;45200;-60
2022/06/08 07:25:17;;;;;;;0.85;0.52;;;17.60;54.50;19.70;93464.00;;;;10436901;28;46088;-59
2022/06/08 07:30:38;;;;;;;2.55;0.63;;;17.50;54.60;19.70;93456.00;;;;10435743;28;45709;-60
2022/06/08 07:36:00;;;;;;;1.27;0.52;;;17.60;54.70;19.70;93454.00;;;;10436599;28;45802;-59
2022/06/08 07:41:21;;;;;;;1.48;0.50;;;17.60;54.70;19.70;93466.00;;;;10436323;28;45281;-60
2022/06/08 07:46:41;;;;;;;1.70;0.50;;;17.60;54.60;19.70;93445.00;;;;10436048;28;45290;-60
2022/06/08 07:52:06;;;;;;;1.35;0.50;;;17.60;54.70;19.70;93456.00;;;;10435449;28;45163;-60
2022/06/08 07:57:27;;;;;;;1.13;0.60;;;17.60;54.80;19.80;93448.00;;;;10436889;28;45193;-61
2022/06/08 08:02:47;;;;;;;2.03;0.60;;;17.60;54.80;19.80;93448.00;;;;10442612;28;45702;-59
2022/06/08 08:08:09;;;;;;;0.82;0.55;;;17.60;54.70;19.80;93439.00;;;;10442500;28;45185;-60
2022/06/08 08:13:30;;;;;;;1.65;0.60;;;17.60;54.80;19.80;93428.00;;;;10442503;28;45229;-59
2022/06/08 08:18:51;;;;;;;0.85;0.50;;;17.60;54.80;19.80;93453.00;;;;10442512;28;45170;-60
2022/06/08 08:24:13;;;;;;;0.47;0.40;;;17.70;54.90;19.80;93447.00;;;;10442532;28;45204;-59
2022/06/08 08:29:34;;;;;;;1.25;0.50;;;17.70;55.00;19.80;93434.00;;;;10442070;28;45721;-60
2022/06/08 08:34:55;;;;;;;0.77;0.50;;;17.70;55.00;19.80;93429.00;;;;10442321;28;45220;-59
2022/06/08 08:40:46;;;;;;;0.70;0.50;;;17.60;54.90;19.80;93410.00;;;;10441890;28;45136;-59
2022/06/08 08:46:23;;;;;;;1.27;0.50;;;17.60;55.00;19.80;93410.00;;;;10441662;28;45171;-60
2022/06/08 08:51:47;;;;;;;1.97;0.60;;;17.70;55.10;19.80;93392.00;;;;10441521;28;45181;-59
2022/06/08 08:57:20;;;;;;;0.70;0.43;;;17.60;55.10;19.80;93375.00;;;;10441532;28;45257;-59
2022/06/08 09:08:22;;;;;;;0.82;0.43;;;17.70;55.10;19.80;93386.00;;;;10440011;28;45219;-60
2022/06/08 09:13:52;;;;;;;1.67;0.52;;;17.70;55.00;19.80;93398.00;;;;10440712;28;45265;-60
2022/06/08 09:19:32;;;;;;;1.55;0.60;;;17.70;55.00;19.80;93392.00;;;;10440088;28;45163;-59
2022/06/08 09:24:58;;;;;;;1.33;0.50;;;17.70;55.00;19.80;93386.00;;;;10440338;28;45298;-59
2022/06/08 09:30:24;;;;;;;0.82;0.35;;;17.70;55.00;19.80;93369.00;;;;10440276;28;45899;-60
2022/06/08 09:35:55;;;;;;;2.05;0.60;;;17.70;55.00;19.80;93366.00;;;;10440351;28;45102;-61
2022/06/08 09:41:24;;;;;;;0.73;0.52;;;17.70;54.90;19.80;93359.00;;;;10440141;28;45109;-60
2022/06/08 09:53:01;;;;;;;1.30;0.40;;;17.70;55.00;19.80;93358.00;;;;10377441;22;45688;-67
2022/06/08 09:58:41;;;;;;;1.70;0.55;;;17.70;55.00;19.80;93345.00;;;;10357868;28;45876;-67
2022/06/08 10:04:42;;;;;;;1.92;0.60;;;17.70;55.00;19.80;93339.00;;;;10386010;28;45218;-68
2022/06/08 10:10:25;;;;;;;1.85;0.60;;;17.70;55.00;19.80;93344.00;;;;10398218;28;45190;-67
2022/06/08 10:15:50;;;;;;;1.80;0.50;;;17.70;55.00;19.80;93339.00;;;;10398261;28;45745;-68
2022/06/08 10:21:16;;;;;;;0.93;0.40;;;17.70;55.00;19.80;93344.00;;;;10397710;28;45214;-67
2022/06/08 10:26:43;;;;;;;1.08;0.40;;;17.70;55.00;19.80;93327.00;;;;10404078;28;45221;-68
2022/06/08 10:32:15;;;;;;;0.67;0.30;;;17.70;54.80;19.90;93339.00;;;;10439089;28;45357;-68
2022/06/08 10:37:41;;;;;;;2.85;0.65;;;17.70;54.70;19.90;93341.00;;;;10439268;28;45387;-68
2022/06/08 10:43:01;;;;;;;2.30;0.50;;;17.80;54.40;19.90;93320.00;;;;10405310;28;45269;-67
2022/06/08 10:48:49;;;;;;;1.20;0.50;;;17.80;54.40;19.90;93319.00;;;;10396741;28;45237;-68
2022/06/08 10:54:54;;;;;;;1.88;0.60;;;17.70;54.10;19.80;93319.00;;;;10396847;28;45872;-67
2022/06/08 11:00:41;;;;;;;0.88;0.40;;;17.70;54.20;19.80;93319.00;;;;10396435;28;45149;-67
2022/06/08 11:06:02;;;;;;;1.70;0.40;;;17.70;54.40;19.90;93313.00;;;;10396370;28;45149;-66
2022/06/08 11:11:43;;;;;;;0.35;0.22;;;17.70;54.50;19.90;93322.00;;;;10396312;28;45837;-66
2022/06/08 11:17:11;;;;;;;0.88;0.52;;;17.70;54.40;19.80;93318.00;;;;10396717;28;45358;-66
2022/06/08 11:22:38;;;;;;;2.78;0.50;;;17.70;54.40;19.80;93308.00;;;;10395935;28;45868;-67
2022/06/08 11:28:32;;;;;;;1.42;0.50;;;17.70;54.40;19.80;93299.00;;;;10395661;28;45576;-66
2022/06/08 11:34:10;;;;;;;1.58;0.50;;;17.60;54.50;19.80;93285.00;;;;10394673;28;45174;-66
2022/06/08 11:39:39;;;;;;;1.05;0.40;;;17.70;54.50;19.80;93289.00;;;;10395281;28;45166;-66
2022/06/08 11:45:13;;;;;;;1.33;0.43;;;17.70;54.50;19.80;93292.00;;;;10394720;28;45889;-66
2022/06/08 11:50:42;;;;;;;1.95;0.50;;;17.70;54.60;19.80;93288.00;;;;10395297;28;45192;-66
2022/06/08 11:56:17;;;;;;;1.63;0.50;;;17.70;54.60;19.80;93284.00;;;;10394741;28;45200;-65
2022/06/08 12:01:46;;;;;;;0.80;0.47;;;17.60;54.50;19.80;93292.00;;;;10394975;28;45134;-66
2022/06/08 12:07:39;;;;;;;1.20;0.50;;;17.60;54.60;19.80;93302.00;;;;10394611;28;45810;-65
2022/06/08 12:13:00;;;;;;;1.80;0.40;;;17.60;54.60;19.80;93296.00;;;;10394741;28;45338;-66
2022/06/08 12:18:39;;;;;;;1.20;0.40;;;17.60;54.60;19.80;93301.00;;;;10394665;28;45146;-66
2022/06/08 12:24:19;;;;;;;0.93;0.40;;;17.60;54.60;19.80;93309.00;;;;10394476;28;45253;-66
2022/06/08 12:29:54;;;;;;;1.92;0.50;;;17.60;54.70;19.80;93309.00;;;;10394142;28;45224;-67
2022/06/08 12:35:32;;;;;;;0.88;0.30;;;17.60;54.70;19.70;93310.00;;;;10393799;28;45196;-66
2022/06/08 12:41:10;;;;;;;2.95;0.43;;;17.60;54.70;19.80;93316.00;;;;10394149;28;45154;-66
2022/06/08 12:46:34;;;;;;;0.95;0.40;;;17.60;54.70;19.80;93318.00;;;;10399483;28;45178;-66
2022/06/08 12:51:58;;;;;;;1.15;0.30;;;17.60;55.30;19.80;93319.00;;;;10400534;28;45116;-66
2022/06/08 12:57:22;;;;;;;1.25;0.50;;;17.60;54.60;19.80;93323.00;;;;10400659;28;45156;-65
2022/06/08 13:02:43;;;;;;;2.83;0.60;;;17.60;54.70;19.70;93308.00;;;;10400717;28;45469;-66
2022/06/08 13:08:07;;;;;;;1.15;0.30;;;17.60;54.70;19.80;93328.00;;;;10399566;28;45221;-66
2022/06/08 13:13:33;;;;;;;2.90;0.50;;;17.60;54.70;19.80;93343.00;;;;10399916;28;45900;-66
2022/06/08 13:18:55;;;;;;;2.17;0.40;;;17.60;54.80;19.70;93366.00;;;;10399791;28;45178;-66
2022/06/08 13:24:20;;;;;;;0.77;0.30;;;17.60;54.80;19.70;93387.00;;;;10399772;28;45822;-65
2022/06/08 13:29:41;;;;;;;0.82;0.40;;;17.60;54.90;19.70;93407.00;;;;10399189;28;45760;-65
2022/06/08 13:35:03;;;;;;;0.82;0.20;;;17.60;55.00;19.70;93400.00;;;;10399260;28;45784;-65
2022/06/08 13:40:29;;;;;;;0.95;0.38;;;17.60;55.10;19.70;93383.00;;;;10399098;28;45213;-66
2022/06/08 13:45:50;;;;;;;1.10;0.30;;;17.60;55.20;19.80;93387.00;;;;10398892;28;45094;-66
2022/06/08 13:51:11;;;;;;;0.90;0.28;;;17.60;55.10;19.80;93394.00;;;;10400428;28;45194;-66
2022/06/08 13:56:35;;;;;;;0.90;0.40;;;17.60;55.10;19.80;93393.00;;;;10385390;28;45198;-66
2022/06/08 14:01:58;;;;;;;1.45;0.40;;;17.70;55.20;19.80;93378.00;;;;10385311;28;45225;-66
2022/06/08 14:13:01;;;;;;;0.80;0.40;;;17.70;55.10;19.90;93382.00;;;;10356353;28;45285;-66
2022/06/08 14:18:26;;;;;;;1.65;0.35;;;17.80;55.20;19.90;93380.00;;;;10355389;28;45758;-66
2022/06/08 14:23:50;;;;;;;0.32;0.22;;;17.80;55.20;19.90;93360.00;;;;10356456;28;45051;-66
2022/06/08 14:29:12;;;;;;;0.63;0.30;;;17.80;55.20;19.90;93378.00;;;;10369732;28;45120;-66
2022/06/08 14:34:35;;;;;;;2.05;0.47;;;17.80;55.20;19.90;93375.00;;;;10355526;28;45190;-65
2022/06/08 14:39:56;;;;;;;1.38;0.30;;;17.80;55.20;20.00;93371.00;;;;10361438;28;45243;-66
2022/06/08 14:45:19;;;;;;;1.25;0.30;;;17.80;55.90;20.00;93361.00;;;;10396371;28;45135;-64
2022/06/08 14:50:39;;;;;;;3.70;0.50;;;17.90;55.40;20.00;93364.00;;;;10387936;28;45166;-67
2022/06/08 15:01:41;;;;;;;2.40;0.57;;;17.90;55.40;20.10;93341.00;;;;10355990;28;45898;-67
2022/06/08 15:07:03;;;;;;;3.42;0.60;;;17.90;55.50;20.10;93357.00;;;;10402677;28;45718;-66
2022/06/08 15:12:28;;;;;;;2.08;0.52;;;17.90;55.50;20.10;93356.00;;;;10385235;28;45260;-67
2022/06/08 15:17:52;;;;;;;1.70;0.65;;;17.90;55.90;20.10;93359.00;;;;10396311;28;45170;-67
2022/06/08 15:23:13;;;;;;;3.88;0.73;;;17.90;56.10;20.10;93357.00;;;;10354190;28;45192;-67
2022/06/08 15:28:36;;;;;;;2.45;0.60;;;17.90;56.10;20.10;93343.00;;;;10354037;28;45206;-67
2022/06/08 15:33:58;;;;;;;3.35;0.68;;;17.90;56.10;20.10;93344.00;;;;10353486;28;45438;-67
2022/06/08 15:39:25;;;;;;;2.30;0.65;;;18.00;56.00;20.10;93347.00;;;;10362688;28;45245;-67
2022/06/08 15:44:47;;;;;;;2.67;0.70;;;17.90;56.00;20.10;93354.00;;;;10394939;28;45155;-67
2022/06/08 15:50:15;;;;;;;2.05;0.50;;;18.00;56.00;20.10;93347.00;;;;10393981;28;45167;-67
2022/06/08 15:55:39;;;;;;;2.97;0.50;;;17.90;55.90;20.10;93339.00;;;;10382446;28;45229;-67
2022/06/08 16:01:00;;;;;;;2.28;0.40;;;17.90;55.90;20.10;93327.00;;;;10376191;28;45789;-65
2022/06/08 16:06:22;;;;;;;3.13;0.60;;;17.90;55.80;20.10;93339.00;;;;10393821;28;45204;-66
2022/06/08 16:11:44;;;;;;;4.22;0.50;;;17.90;55.80;20.10;93341.00;;;;10395299;28;45166;-66
2022/06/08 16:17:05;;;;;;;2.50;0.40;;;18.00;56.00;20.10;93335.00;;;;10352467;28;45239;-66
2022/06/08 16:22:27;;;;;;;7.68;0.50;;;18.00;55.90;20.10;93349.00;;;;10402116;28;45193;-66
2022/06/08 16:27:48;;;;;;;2.28;0.60;;;18.00;55.90;20.10;93352.00;;;;10400382;28;45932;-66
2022/06/08 16:33:09;;;;;;;2.97;0.70;;;18.00;55.90;20.10;93347.00;;;;10405390;28;45373;-66
2022/06/08 16:38:32;;;;;;;1.77;0.80;;;18.00;55.90;20.10;93357.00;;;;10359206;28;45100;-65
2022/06/08 16:43:52;;;;;;;4.13;0.60;;;18.00;56.00;20.10;93377.00;;;;10407606;28;45253;-66
2022/06/08 16:49:13;;;;;;;2.83;0.80;;;18.00;56.20;20.10;93359.00;;;;10441232;28;45208;-66
2022/06/08 16:54:35;;;;;;;3.08;0.68;;;18.00;56.00;20.20;93348.00;;;;10435411;28;45173;-66
2022/06/08 16:59:56;;;;;;;1.00;0.60;;;18.00;56.10;20.20;93360.00;;;;10414135;28;45181;-66
2022/06/08 17:05:17;;;;;;;2.83;0.80;;;18.00;55.90;20.20;93355.00;;;;10376010;28;45242;-66
2022/06/08 17:11:36;;;;;;;3.13;0.80;;;18.00;56.00;20.20;93355.00;;;;10372692;28;45814;-66
2022/06/08 17:16:21;;;;;;;2.00;0.70;;;18.00;56.10;20.20;93355.00;;;;10376159;28;45451;-66
2022/06/08 17:21:42;;;;;;;1.75;0.70;;;18.00;56.00;20.20;93349.00;;;;10382120;28;45288;-66
2022/06/08 17:27:06;;;;;;;2.75;0.77;;;18.00;56.20;20.20;93362.00;;;;10440049;28;45287;-66
2022/06/08 17:32:29;;;;;;;1.27;0.52;;;18.00;56.20;20.20;93365.00;;;;10439023;28;45768;-66
2022/06/08 17:37:49;;;;;;;2.03;0.60;;;18.00;56.20;20.20;93371.00;;;;10405570;28;45297;-66
2022/06/08 17:43:11;;;;;;;1.50;0.63;;;18.00;56.20;20.20;93368.00;;;;10397990;28;45489;-66
2022/06/08 17:48:32;;;;;;;1.13;0.57;;;18.00;56.00;20.20;93357.00;;;;10397141;28;45194;-66
2022/06/08 17:53:53;;;;;;;2.55;0.70;;;18.00;56.70;20.20;93355.00;;;;10356709;28;45698;-66
2022/06/08 17:59:15;;;;;;;1.80;0.60;;;18.00;56.20;20.20;93354.00;;;;10356975;28;45386;-65
2022/06/08 18:04:36;;;;;;;1.45;0.50;;;18.10;56.10;20.30;93353.00;;;;10356588;28;45376;-69
2022/06/08 18:09:57;;;;;;;1.48;0.55;;;18.10;56.00;20.30;93359.00;;;;10355935;28;45167;-69
2022/06/08 18:15:21;;;;;;;2.45;0.40;;;18.10;56.10;20.30;93358.00;;;;10374766;28;45618;-65
2022/06/08 18:20:44;;;;;;;2.58;0.50;;;18.10;56.10;20.30;93361.00;;;;10396911;28;45281;-64
2022/06/08 18:26:05;;;;;;;1.83;0.45;;;18.10;56.10;20.30;93353.00;;;;10396651;28;45146;-69
2022/06/08 18:31:28;;;;;;;1.77;0.40;;;18.20;56.00;20.30;93369.00;;;;10396841;28;45525;-67
2022/06/08 18:36:49;;;;;;;0.70;0.38;;;18.20;56.00;20.40;93363.00;;;;10398851;28;45149;-68
2022/06/08 18:42:13;;;;;;;1.25;0.40;;;18.20;55.90;20.40;93372.00;;;;10396391;28;45139;-65
2022/06/08 18:47:38;;;;;;;2.15;0.40;;;18.30;56.00;20.40;93380.00;;;;10396219;28;45245;-66
2022/06/08 18:53:00;;;;;;;1.25;0.40;;;18.20;55.90;20.40;93393.00;;;;10395917;28;45147;-65
2022/06/08 18:58:21;;;;;;;1.00;0.38;;;18.30;56.10;20.40;93380.00;;;;10396000;28;45149;-65
2022/06/08 19:03:43;;;;;;;1.00;0.47;;;18.30;56.20;20.40;93391.00;;;;10395737;28;45113;-65
2022/06/08 19:09:06;;;;;;;3.03;0.95;;;18.30;56.30;20.40;93390.00;;;;10392982;28;45178;-65
2022/06/08 19:14:27;;;;;;;5.25;1.60;;;18.30;56.30;20.40;93387.00;;;;10395196;28;45888;-65
2022/06/08 19:25:27;;;;;;;13.27;3.60;;;18.20;56.10;20.50;93385.00;;;;10394712;28;45766;-67
2022/06/08 19:30:51;;;;;;;9.18;3.13;;;18.30;56.30;20.40;93398.00;;;;10392868;28;45893;-66
2022/06/08 19:36:17;;;;;;;11.52;3.75;;;18.30;56.30;20.40;93402.00;;;;10401356;28;45212;-66
2022/06/08 19:41:40;;;;;;;7.90;2.75;;;18.30;56.20;20.40;93425.00;;;;10436372;28;45300;-67
2022/06/08 19:47:00;;;;;;;10.13;2.85;;;18.30;56.20;20.40;93412.00;;;;10402188;28;45226;-65
2022/06/08 19:52:22;;;;;;;7.70;2.63;;;18.20;56.10;20.40;93429.00;;;;10401673;28;45395;-65
2022/06/08 19:57:42;;;;;;;6.25;2.60;;;18.20;56.10;20.40;93442.00;;;;10442769;28;45157;-65
2022/06/08 20:03:03;;;;;;;7.38;2.40;;;18.30;56.10;20.40;93459.00;;;;10443347;28;45237;-66
2022/06/08 20:08:26;;;;;;;7.57;2.35;;;18.20;56.10;20.40;93428.00;;;;10442770;28;45172;-66
2022/06/08 20:13:47;;;;;;;8.02;2.53;;;18.20;56.10;20.30;93409.00;;;;10443081;28;45360;-66
2022/06/08 20:19:08;;;;;;;8.73;2.20;;;18.20;56.10;20.30;93407.00;;;;10442440;28;45255;-65
2022/06/08 20:24:30;;;;;;;6.20;2.17;;;18.20;56.10;20.30;93398.00;;;;10442859;28;45309;-65
2022/06/08 20:29:50;;;;;;;5.28;1.90;;;18.20;56.20;20.30;93401.00;;;;10442367;28;45353;-65
2022/06/08 20:35:15;;;;;;;6.18;1.75;;;18.10;56.10;20.30;93388.00;;;;10442162;28;45171;-65
2022/06/08 20:40:38;;;;;;;3.65;1.40;;;18.10;56.20;20.20;93402.00;;;;10441820;28;45143;-65
2022/06/08 20:46:00;;;;;;;4.78;1.63;;;18.10;56.10;20.20;93407.00;;;;10441372;28;46612;-66
2022/06/08 20:51:22;;;;;;;5.00;1.98;;;18.00;56.10;20.20;93407.00;;;;10436530;28;45383;-66
2022/06/08 20:56:45;;;;;;;5.40;2.00;;;18.00;56.10;20.20;93428.00;;;;10405574;28;45877;-65
2022/06/08 21:02:13;;;;;;;4.35;1.60;;;18.00;56.10;20.20;93423.00;;;;10401422;28;46018;-65
2022/06/08 21:07:35;;;;;;;3.88;1.42;;;18.00;56.10;20.10;93427.00;;;;10399319;28;45342;-65
2022/06/08 21:12:57;;;;;;;4.80;1.42;;;18.00;56.20;20.10;93427.00;;;;10394060;28;45414;-66
2022/06/08 21:18:20;;;;;;;4.53;1.45;;;17.90;56.10;20.10;93437.00;;;;10356546;28;45212;-66
2022/06/08 21:23:42;;;;;;;3.75;1.10;;;17.90;56.10;20.10;93453.00;;;;10358500;28;45096;-66
2022/06/08 21:29:07;;;;;;;4.75;1.20;;;17.90;56.10;20.10;93435.00;;;;10358060;28;45170;-66
2022/06/08 21:34:28;;;;;;;2.50;0.90;;;17.90;56.10;20.00;93444.00;;;;10357971;28;45243;-66
2022/06/08 21:39:49;;;;;;;2.08;0.90;;;17.90;56.10;20.00;93450.00;;;;10357465;28;45857;-66
2022/06/08 21:45:15;;;;;;;2.22;0.98;;;17.90;56.10;20.00;93444.00;;;;10357868;28;45698;-65
2022/06/08 21:50:39;;;;;;;1.42;0.70;;;17.80;56.10;20.00;93439.00;;;;10357600;28;45210;-66
2022/06/08 21:55:59;;;;;;;2.08;0.93;;;17.80;56.20;20.00;93448.00;;;;10356926;28;45122;-66
2022/06/08 22:01:21;;;;;;;2.92;0.80;;;17.80;56.20;19.90;93439.00;;;;10357294;28;45219;-65
2022/06/08 22:06:42;;;;;;;2.17;0.80;;;17.80;56.20;19.90;93437.00;;;;10395026;28;45181;-66
2022/06/08 22:12:04;;;;;;;3.42;1.00;;;17.80;56.30;19.90;93443.00;;;;10397878;28;45276;-65
2022/06/08 22:17:26;;;;;;;1.63;0.70;;;17.80;56.30;19.90;93464.00;;;;10393428;28;45726;-67
2022/06/08 22:22:47;;;;;;;2.22;0.60;;;17.70;56.30;19.90;93445.00;;;;10394650;28;45165;-67
2022/06/08 22:28:08;;;;;;;1.75;0.55;;;17.70;56.30;19.90;93455.00;;;;10396799;28;45218;-66
2022/06/08 22:33:30;;;;;;;2.13;0.73;;;17.70;56.30;19.80;93446.00;;;;10397390;28;45237;-66
2022/06/08 22:38:52;;;;;;;1.45;0.55;;;17.70;56.30;19.80;93447.00;;;;10396314;28;45886;-67
2022/06/08 22:44:13;;;;;;;2.80;0.50;;;17.60;56.30;19.80;93439.00;;;;10396677;28;45126;-65
2022/06/08 22:49:35;;;;;;;1.75;0.60;;;17.70;56.40;19.80;93440.00;;;;10399888;28;45183;-65
2022/06/08 22:54:55;;;;;;;1.60;0.60;;;17.60;56.40;19.80;93445.00;;;;10401307;28;45173;-64
2022/06/08 23:00:19;;;;;;;1.55;0.40;;;17.80;56.60;19.70;93424.00;;;;10400699;28;45168;-64
2022/06/08 23:05:42;;;;;;;1.10;0.47;;;17.60;56.50;19.80;93421.00;;;;10400905;28;45284;-65
2022/06/08 23:22:22;;;;;;;1.10;0.40;;;17.60;56.60;19.70;93427.00;;;;10396073;28;45370;-65
2022/06/08 23:27:42;;;;;;;0.68;0.32;;;17.50;56.50;19.70;93414.00;;;;10394068;28;45683;-65
2022/06/08 23:33:02;;;;;;;1.35;0.40;;;17.60;56.60;19.70;93412.00;;;;10395502;28;45219;-65
2022/06/08 23:38:24;;;;;;;1.00;0.30;;;17.50;56.60;19.70;93419.00;;;;10394681;28;45092;-66
2022/06/08 23:43:45;;;;;;;1.35;0.30;;;17.50;56.60;19.70;93417.00;;;;10395196;28;45739;-66
2022/06/08 23:49:05;;;;;;;1.27;0.40;;;17.50;56.60;19.70;93428.00;;;;10394489;28;45761;-65
2022/06/08 23:54:27;;;;;;;1.60;0.30;;;17.50;56.60;19.60;93447.00;;;;10396974;28;45218;-65
2022/06/08 23:59:48;;;;;;;1.15;0.40;;;17.50;56.80;19.60;93445.00;;;;10399435;28;45181;-65
